Guymon Municipal Airport
KGUY : now visible

Airfield :











YOU CAN JOIN US ON...

 
LOGIN :

Register | Disclaimer

   EN    FR    IT 

 









Legend :    VFR   Marginal VFR   IFR   Intensive IFR   Very Intensive IFR
Visi :
Ceiling :
>= 8 km
>= 3000ft
5 to 8 km
1000 to 3000 ft
1500m to 5 km
500 to 1000 ft
800 to 1500m
200 to 500 ft
< 800m
< 200 ft
Symbols :   Thunderstorms  Fog  Heavy snow  Heavy precipitations  Wind > 20 kt






- Airport Elevation : 3123 ft


KGUY - Guymon Municipal

CURRENT METAR :
  • 281753Z AUTO 29020G35KT 10SM CLR 16/M06 A2979 RMK AO2 PK WND 31035/1745 SLP060 T01561061 10156 20044 50002

EXPIRED METARs :
  • 281653Z AUTO 30025G39KT 10SM CLR 14/M07 A2980 RMK AO2 PK WND 32039/1645 SLP063 T01391067
  • 281553Z AUTO 31025G30KT 10SM CLR 12/M04 A2979 RMK AO2 PK WND 31037/1456 SLP062 T01171044

TAF KGUY
Valid from the 28 at 18:00 until the 29 at 18:00 UTC


281720Z 2818/2918 31025G35KT P6SM SKC
FM282300 34020G30KT P6SM FEW250
FM290200 VRB05KT P6SM SKC



MET'MAP, your aeronautical weather chart ! - Copyright ORBIFLY December 2007 - Disclaimer

ORBIFLY MET'MAP TEAM :

Programming & Development : Alexandra Zaïnal
Concept & original design : Baudouin d'Aumeries
Assistance for programming : Marc-Olivier Méhu
Technical & hardware support : Manuel Goepfert

Contact : metmap@orbifly.com




SOURCES & CREDITS :

   NOAA       Earth
Advisory